sensor_id;sensor_type;location;lat;lon;timestamp;temperature;humidity
12845;DHT22;68700;48.534;9.196;2023-11-21T00:02:30;7.90;99.90
12845;DHT22;68700;48.534;9.196;2023-11-21T00:05:52;7.90;99.90
12845;DHT22;68700;48.534;9.196;2023-11-21T00:09:15;7.90;99.90
12845;DHT22;68700;48.534;9.196;2023-11-21T00:12:38;7.90;99.90
12845;DHT22;68700;48.534;9.196;2023-11-21T00:16:04;7.90;99.90
12845;DHT22;68700;48.534;9.196;2023-11-21T00:19:26;7.90;99.90
12845;DHT22;68700;48.534;9.196;2023-11-21T00:22:48;7.90;99.90
12845;DHT22;68700;48.534;9.196;2023-11-21T00:26:10;7.90;99.90
12845;DHT22;68700;48.534;9.196;2023-11-21T00:29:31;7.90;99.90
12845;DHT22;68700;48.534;9.196;2023-11-21T00:32:54;7.90;99.90
12845;DHT22;68700;48.534;9.196;2023-11-21T00:36:16;7.90;99.90
12845;DHT22;68700;48.534;9.196;2023-11-21T00:39:38;8.00;99.90
12845;DHT22;68700;48.534;9.196;2023-11-21T00:43:00;8.00;99.90
12845;DHT22;68700;48.534;9.196;2023-11-21T00:46:22;8.00;99.90
12845;DHT22;68700;48.534;9.196;2023-11-21T00:49:46;7.90;99.90
12845;DHT22;68700;48.534;9.196;2023-11-21T00:53:07;7.90;99.90
12845;DHT22;68700;48.534;9.196;2023-11-21T00:56:29;7.90;99.90
12845;DHT22;68700;48.534;9.196;2023-11-21T00:59:52;7.90;99.90
12845;DHT22;68700;48.534;9.196;2023-11-21T01:03:14;8.00;99.90
12845;DHT22;68700;48.534;9.196;2023-11-21T01:06:37;8.00;99.90
12845;DHT22;68700;48.534;9.196;2023-11-21T01:09:59;7.90;99.90
12845;DHT22;68700;48.534;9.196;2023-11-21T01:13:21;7.90;99.90
12845;DHT22;68700;48.534;9.196;2023-11-21T01:16:43;8.00;99.90
12845;DHT22;68700;48.534;9.196;2023-11-21T01:20:06;8.00;99.90
12845;DHT22;68700;48.534;9.196;2023-11-21T01:23:33;8.00;99.90
12845;DHT22;68700;48.534;9.196;2023-11-21T01:26:55;8.00;99.90
12845;DHT22;68700;48.534;9.196;2023-11-21T01:30:17;8.00;99.90
12845;DHT22;68700;48.534;9.196;2023-11-21T01:33:39;8.00;99.90
12845;DHT22;68700;48.534;9.196;2023-11-21T01:37:01;8.00;99.90
12845;DHT22;68700;48.534;9.196;2023-11-21T01:40:26;8.00;99.90
12845;DHT22;68700;48.534;9.196;2023-11-21T01:43:49;8.00;99.90
12845;DHT22;68700;48.534;9.196;2023-11-21T01:47:11;8.00;99.90
12845;DHT22;68700;48.534;9.196;2023-11-21T01:50:34;8.00;99.90
12845;DHT22;68700;48.534;9.196;2023-11-21T01:53:56;8.00;99.90
12845;DHT22;68700;48.534;9.196;2023-11-21T01:57:21;7.90;99.90
12845;DHT22;68700;48.534;9.196;2023-11-21T02:00:43;7.90;99.90
12845;DHT22;68700;48.534;9.196;2023-11-21T02:04:05;7.90;99.90
12845;DHT22;68700;48.534;9.196;2023-11-21T02:07:28;7.90;99.90
12845;DHT22;68700;48.534;9.196;2023-11-21T02:10:50;8.00;68.30
12845;DHT22;68700;48.534;9.196;2023-11-21T02:14:13;8.10;61.90
12845;DHT22;68700;48.534;9.196;2023-11-21T02:17:35;8.10;80.70
12845;DHT22;68700;48.534;9.196;2023-11-21T02:20:57;8.10;66.30
12845;DHT22;68700;48.534;9.196;2023-11-21T02:24:21;8.10;50.10
12845;DHT22;68700;48.534;9.196;2023-11-21T02:27:43;8.10;27.90
12845;DHT22;68700;48.534;9.196;2023-11-21T02:31:08;8.00;44.70
12845;DHT22;68700;48.534;9.196;2023-11-21T02:34:30;8.00;57.10
12845;DHT22;68700;48.534;9.196;2023-11-21T02:37:52;7.90;74.80
12845;DHT22;68700;48.534;9.196;2023-11-21T02:41:15;7.80;99.10
12845;DHT22;68700;48.534;9.196;2023-11-21T02:44:37;7.80;99.90
12845;DHT22;68700;48.534;9.196;2023-11-21T02:47:59;7.80;95.00
12845;DHT22;68700;48.534;9.196;2023-11-21T02:51:21;7.80;99.90
12845;DHT22;68700;48.534;9.196;2023-11-21T02:54:43;7.90;64.80
12845;DHT22;68700;48.534;9.196;2023-11-21T02:58:06;7.90;42.80
12845;DHT22;68700;48.534;9.196;2023-11-21T03:01:29;8.00;30.50
12845;DHT22;68700;48.534;9.196;2023-11-21T03:04:50;7.90;45.30
12845;DHT22;68700;48.534;9.196;2023-11-21T03:08:12;7.90;33.20
12845;DHT22;68700;48.534;9.196;2023-11-21T03:11:34;7.90;28.00
12845;DHT22;68700;48.534;9.196;2023-11-21T03:14:57;8.00;22.80
12845;DHT22;68700;48.534;9.196;2023-11-21T03:18:19;7.90;23.40
12845;DHT22;68700;48.534;9.196;2023-11-21T03:21:42;7.90;36.40
12845;DHT22;68700;48.534;9.196;2023-11-21T03:25:05;7.90;23.90
12845;DHT22;68700;48.534;9.196;2023-11-21T03:28:27;7.90;41.60
12845;DHT22;68700;48.534;9.196;2023-11-21T03:31:51;7.80;38.70
12845;DHT22;68700;48.534;9.196;2023-11-21T03:35:13;7.80;33.40
12845;DHT22;68700;48.534;9.196;2023-11-21T03:38:36;7.90;40.30
12845;DHT22;68700;48.534;9.196;2023-11-21T03:41:58;7.90;28.30
12845;DHT22;68700;48.534;9.196;2023-11-21T03:45:20;8.00;4.50
12845;DHT22;68700;48.534;9.196;2023-11-21T03:48:43;8.00;1.00
12845;DHT22;68700;48.534;9.196;2023-11-21T03:52:05;8.00;1.00
12845;DHT22;68700;48.534;9.196;2023-11-21T03:55:29;8.00;3.00
12845;DHT22;68700;48.534;9.196;2023-11-21T03:58:52;8.00;5.10
12845;DHT22;68700;48.534;9.196;2023-11-21T04:02:13;7.90;3.60
12845;DHT22;68700;48.534;9.196;2023-11-21T04:05:37;7.90;1.00
12845;DHT22;68700;48.534;9.196;2023-11-21T04:08:58;7.90;1.00
12845;DHT22;68700;48.534;9.196;2023-11-21T04:12:20;7.80;16.90
12845;DHT22;68700;48.534;9.196;2023-11-21T04:15:42;7.80;23.80
12845;DHT22;68700;48.534;9.196;2023-11-21T04:19:04;7.80;19.70
12845;DHT22;68700;48.534;9.196;2023-11-21T04:22:27;7.80;7.70
12845;DHT22;68700;48.534;9.196;2023-11-21T04:25:49;7.90;1.00
12845;DHT22;68700;48.534;9.196;2023-11-21T04:29:11;8.00;1.00
12845;DHT22;68700;48.534;9.196;2023-11-21T04:32:33;8.00;6.30
12845;DHT22;68700;48.534;9.196;2023-11-21T04:35:55;7.90;29.90
12845;DHT22;68700;48.534;9.196;2023-11-21T04:39:20;7.90;68.10
12845;DHT22;68700;48.534;9.196;2023-11-21T04:42:41;7.80;99.90
12845;DHT22;68700;48.534;9.196;2023-11-21T04:46:03;7.80;99.90
12845;DHT22;68700;48.534;9.196;2023-11-21T04:49:25;7.70;99.90
12845;DHT22;68700;48.534;9.196;2023-11-21T04:52:47;7.80;99.90
12845;DHT22;68700;48.534;9.196;2023-11-21T04:56:10;7.70;99.90
12845;DHT22;68700;48.534;9.196;2023-11-21T04:59:32;7.70;99.90
12845;DHT22;68700;48.534;9.196;2023-11-21T05:02:54;7.80;85.40
12845;DHT22;68700;48.534;9.196;2023-11-21T05:06:16;7.80;48.00
12845;DHT22;68700;48.534;9.196;2023-11-21T05:09:41;7.80;58.50
12845;DHT22;68700;48.534;9.196;2023-11-21T05:13:05;7.80;69.00
12845;DHT22;68700;48.534;9.196;2023-11-21T05:16:30;7.70;41.70
12845;DHT22;68700;48.534;9.196;2023-11-21T05:19:52;7.80;37.20
12845;DHT22;68700;48.534;9.196;2023-11-21T05:23:14;7.80;31.10
12845;DHT22;68700;48.534;9.196;2023-11-21T05:26:35;7.80;47.90
12845;DHT22;68700;48.534;9.196;2023-11-21T05:29:58;7.80;73.00
12845;DHT22;68700;48.534;9.196;2023-11-21T05:33:20;7.70;99.90
12845;DHT22;68700;48.534;9.196;2023-11-21T05:36:43;7.70;99.90
12845;DHT22;68700;48.534;9.196;2023-11-21T05:40:07;7.70;99.90
12845;DHT22;68700;48.534;9.196;2023-11-21T05:43:30;7.70;99.90
12845;DHT22;68700;48.534;9.196;2023-11-21T05:46:54;7.70;99.90
12845;DHT22;68700;48.534;9.196;2023-11-21T05:50:17;7.60;99.90
12845;DHT22;68700;48.534;9.196;2023-11-21T05:53:39;7.60;99.90
12845;DHT22;68700;48.534;9.196;2023-11-21T05:57:01;7.60;99.90
12845;DHT22;68700;48.534;9.196;2023-11-21T06:00:23;7.60;99.90
12845;DHT22;68700;48.534;9.196;2023-11-21T06:03:47;7.60;99.90
12845;DHT22;68700;48.534;9.196;2023-11-21T06:07:09;7.60;99.90
12845;DHT22;68700;48.534;9.196;2023-11-21T06:10:31;7.60;99.90
12845;DHT22;68700;48.534;9.196;2023-11-21T06:13:53;7.50;99.90
12845;DHT22;68700;48.534;9.196;2023-11-21T06:17:14;7.50;99.90
12845;DHT22;68700;48.534;9.196;2023-11-21T06:20:38;7.50;99.90
12845;DHT22;68700;48.534;9.196;2023-11-21T06:24:00;7.40;99.90
12845;DHT22;68700;48.534;9.196;2023-11-21T06:27:22;7.40;99.90
12845;DHT22;68700;48.534;9.196;2023-11-21T06:30:45;7.30;99.90
12845;DHT22;68700;48.534;9.196;2023-11-21T06:34:07;7.30;99.90
12845;DHT22;68700;48.534;9.196;2023-11-21T06:37:31;7.30;99.90
12845;DHT22;68700;48.534;9.196;2023-11-21T06:40:53;7.40;99.90
12845;DHT22;68700;48.534;9.196;2023-11-21T06:44:16;7.30;99.90
12845;DHT22;68700;48.534;9.196;2023-11-21T06:47:38;7.40;99.90
12845;DHT22;68700;48.534;9.196;2023-11-21T06:51:00;7.40;99.90
12845;DHT22;68700;48.534;9.196;2023-11-21T06:54:24;7.50;99.90
12845;DHT22;68700;48.534;9.196;2023-11-21T06:57:45;7.50;99.90
12845;DHT22;68700;48.534;9.196;2023-11-21T07:01:07;7.50;99.90
12845;DHT22;68700;48.534;9.196;2023-11-21T07:04:29;7.60;99.90
12845;DHT22;68700;48.534;9.196;2023-11-21T07:07:51;7.70;99.90
12845;DHT22;68700;48.534;9.196;2023-11-21T07:11:15;7.80;99.90
12845;DHT22;68700;48.534;9.196;2023-11-21T07:14:37;7.80;99.90
12845;DHT22;68700;48.534;9.196;2023-11-21T07:18:01;7.60;99.90
12845;DHT22;68700;48.534;9.196;2023-11-21T07:21:23;7.60;99.90
12845;DHT22;68700;48.534;9.196;2023-11-21T07:24:45;7.80;99.90
12845;DHT22;68700;48.534;9.196;2023-11-21T07:28:08;8.00;99.90
12845;DHT22;68700;48.534;9.196;2023-11-21T07:31:30;8.20;99.90
12845;DHT22;68700;48.534;9.196;2023-11-21T07:34:54;8.20;99.90
12845;DHT22;68700;48.534;9.196;2023-11-21T07:38:18;8.30;99.90
12845;DHT22;68700;48.534;9.196;2023-11-21T07:41:40;8.20;99.90
12845;DHT22;68700;48.534;9.196;2023-11-21T07:45:08;8.30;99.90
12845;DHT22;68700;48.534;9.196;2023-11-21T07:48:30;8.40;99.90
12845;DHT22;68700;48.534;9.196;2023-11-21T07:51:52;8.50;99.90
12845;DHT22;68700;48.534;9.196;2023-11-21T07:55:14;8.50;99.90
12845;DHT22;68700;48.534;9.196;2023-11-21T07:58:36;8.60;99.90
12845;DHT22;68700;48.534;9.196;2023-11-21T08:01:59;8.70;99.90
12845;DHT22;68700;48.534;9.196;2023-11-21T08:05:21;8.80;99.90
12845;DHT22;68700;48.534;9.196;2023-11-21T08:08:43;8.80;99.90
12845;DHT22;68700;48.534;9.196;2023-11-21T08:12:05;8.80;99.90
12845;DHT22;68700;48.534;9.196;2023-11-21T08:15:28;8.70;94.60
12845;DHT22;68700;48.534;9.196;2023-11-21T08:18:51;8.70;99.30
12845;DHT22;68700;48.534;9.196;2023-11-21T08:22:13;8.80;98.70
12845;DHT22;68700;48.534;9.196;2023-11-21T08:25:36;8.70;83.20
12845;DHT22;68700;48.534;9.196;2023-11-21T08:28:59;8.60;99.90
12845;DHT22;68700;48.534;9.196;2023-11-21T08:32:21;8.70;99.90
12845;DHT22;68700;48.534;9.196;2023-11-21T08:35:46;8.80;99.90
12845;DHT22;68700;48.534;9.196;2023-11-21T08:39:08;8.70;98.60
12845;DHT22;68700;48.534;9.196;2023-11-21T08:42:30;8.70;99.90
12845;DHT22;68700;48.534;9.196;2023-11-21T08:45:52;8.70;99.90
12845;DHT22;68700;48.534;9.196;2023-11-21T08:49:14;8.80;89.30
12845;DHT22;68700;48.534;9.196;2023-11-21T08:52:37;8.80;79.50
12845;DHT22;68700;48.534;9.196;2023-11-21T08:55:59;8.80;99.90
12845;DHT22;68700;48.534;9.196;2023-11-21T08:59:21;8.90;53.40
12845;DHT22;68700;48.534;9.196;2023-11-21T09:02:43;8.90;99.90
12845;DHT22;68700;48.534;9.196;2023-11-21T09:06:06;8.80;74.00
12845;DHT22;68700;48.534;9.196;2023-11-21T09:09:31;9.00;58.20
12845;DHT22;68700;48.534;9.196;2023-11-21T09:12:53;9.10;13.50
12845;DHT22;68700;48.534;9.196;2023-11-21T09:16:15;9.00;29.50
12845;DHT22;68700;48.534;9.196;2023-11-21T09:19:37;9.20;1.00
12845;DHT22;68700;48.534;9.196;2023-11-21T09:22:59;9.00;8.30
12845;DHT22;68700;48.534;9.196;2023-11-21T09:26:22;9.00;1.00
12845;DHT22;68700;48.534;9.196;2023-11-21T09:29:44;9.10;1.00
12845;DHT22;68700;48.534;9.196;2023-11-21T09:33:06;9.10;8.20
12845;DHT22;68700;48.534;9.196;2023-11-21T09:36:31;9.30;1.10
12845;DHT22;68700;48.534;9.196;2023-11-21T09:39:54;9.50;1.00
12845;DHT22;68700;48.534;9.196;2023-11-21T09:43:17;9.70;1.00
12845;DHT22;68700;48.534;9.196;2023-11-21T09:46:42;9.90;1.00
12845;DHT22;68700;48.534;9.196;2023-11-21T09:50:05;9.90;1.00
12845;DHT22;68700;48.534;9.196;2023-11-21T09:53:30;10.30;1.00
12845;DHT22;68700;48.534;9.196;2023-11-21T09:56:53;10.40;1.00
12845;DHT22;68700;48.534;9.196;2023-11-21T10:00:19;10.80;1.00
12845;DHT22;68700;48.534;9.196;2023-11-21T10:03:44;10.70;1.00
12845;DHT22;68700;48.534;9.196;2023-11-21T10:07:06;10.60;1.00
12845;DHT22;68700;48.534;9.196;2023-11-21T10:10:32;10.30;1.00
12845;DHT22;68700;48.534;9.196;2023-11-21T10:13:54;10.40;1.00
12845;DHT22;68700;48.534;9.196;2023-11-21T10:17:19;10.00;1.00
12845;DHT22;68700;48.534;9.196;2023-11-21T10:20:42;10.00;1.00
12845;DHT22;68700;48.534;9.196;2023-11-21T10:24:07;9.60;7.70
12845;DHT22;68700;48.534;9.196;2023-11-21T10:27:29;9.50;1.00
12845;DHT22;68700;48.534;9.196;2023-11-21T10:30:51;9.60;14.90
12845;DHT22;68700;48.534;9.196;2023-11-21T10:34:16;9.80;1.00
12845;DHT22;68700;48.534;9.196;2023-11-21T10:37:39;10.00;1.00
12845;DHT22;68700;48.534;9.196;2023-11-21T10:41:01;10.50;1.00
12845;DHT22;68700;48.534;9.196;2023-11-21T10:44:25;10.50;1.00
12845;DHT22;68700;48.534;9.196;2023-11-21T10:47:47;10.00;1.00
12845;DHT22;68700;48.534;9.196;2023-11-21T10:51:11;10.00;1.00
12845;DHT22;68700;48.534;9.196;2023-11-21T10:54:32;10.00;1.00
12845;DHT22;68700;48.534;9.196;2023-11-21T10:57:58;9.90;1.00
12845;DHT22;68700;48.534;9.196;2023-11-21T11:01:20;9.80;1.00
12845;DHT22;68700;48.534;9.196;2023-11-21T11:04:43;9.90;1.00
12845;DHT22;68700;48.534;9.196;2023-11-21T11:08:08;9.90;1.00
12845;DHT22;68700;48.534;9.196;2023-11-21T11:11:33;9.90;1.00
12845;DHT22;68700;48.534;9.196;2023-11-21T11:14:57;9.80;1.00
12845;DHT22;68700;48.534;9.196;2023-11-21T11:18:21;9.80;1.00
12845;DHT22;68700;48.534;9.196;2023-11-21T11:21:48;10.00;1.00
12845;DHT22;68700;48.534;9.196;2023-11-21T11:25:34;10.00;33.00
12845;DHT22;68700;48.534;9.196;2023-11-21T11:29:03;10.10;1.00
12845;DHT22;68700;48.534;9.196;2023-11-21T11:32:38;10.30;1.00
12845;DHT22;68700;48.534;9.196;2023-11-21T11:36:06;10.40;1.00
12845;DHT22;68700;48.534;9.196;2023-11-21T11:39:29;10.40;1.00
12845;DHT22;68700;48.534;9.196;2023-11-21T11:43:00;10.20;1.00
12845;DHT22;68700;48.534;9.196;2023-11-21T11:46:41;10.20;1.00
12845;DHT22;68700;48.534;9.196;2023-11-21T11:50:04;10.00;1.00
12845;DHT22;68700;48.534;9.196;2023-11-21T11:53:41;9.50;53.80
12845;DHT22;68700;48.534;9.196;2023-11-21T11:57:03;9.30;99.90
12845;DHT22;68700;48.534;9.196;2023-11-21T12:00:35;9.10;99.90
12845;DHT22;68700;48.534;9.196;2023-11-21T12:04:26;8.80;99.90
12845;DHT22;68700;48.534;9.196;2023-11-21T12:07:56;8.90;99.90
12845;DHT22;68700;48.534;9.196;2023-11-21T12:11:18;8.90;99.90
12845;DHT22;68700;48.534;9.196;2023-11-21T12:14:40;8.80;99.90
12845;DHT22;68700;48.534;9.196;2023-11-21T12:18:04;8.90;99.90
12845;DHT22;68700;48.534;9.196;2023-11-21T12:21:27;8.90;99.90
12845;DHT22;68700;48.534;9.196;2023-11-21T12:24:49;9.00;99.90
12845;DHT22;68700;48.534;9.196;2023-11-21T12:28:11;9.20;99.90
12845;DHT22;68700;48.534;9.196;2023-11-21T12:31:34;9.40;99.90
12845;DHT22;68700;48.534;9.196;2023-11-21T12:34:57;9.50;99.90
12845;DHT22;68700;48.534;9.196;2023-11-21T12:38:19;9.50;99.90
12845;DHT22;68700;48.534;9.196;2023-11-21T12:41:41;9.70;99.90
12845;DHT22;68700;48.534;9.196;2023-11-21T12:45:18;9.70;99.90
12845;DHT22;68700;48.534;9.196;2023-11-21T12:48:41;9.70;99.90
12845;DHT22;68700;48.534;9.196;2023-11-21T12:52:06;9.50;99.90
12845;DHT22;68700;48.534;9.196;2023-11-21T12:55:30;9.50;99.90
12845;DHT22;68700;48.534;9.196;2023-11-21T12:58:54;9.60;99.90
12845;DHT22;68700;48.534;9.196;2023-11-21T13:02:17;9.60;99.90
12845;DHT22;68700;48.534;9.196;2023-11-21T13:05:40;9.70;99.90
12845;DHT22;68700;48.534;9.196;2023-11-21T13:09:06;9.70;99.90
12845;DHT22;68700;48.534;9.196;2023-11-21T13:12:31;9.70;99.90
12845;DHT22;68700;48.534;9.196;2023-11-21T13:15:54;9.80;99.90
12845;DHT22;68700;48.534;9.196;2023-11-21T13:19:17;9.90;99.90
12845;DHT22;68700;48.534;9.196;2023-11-21T13:22:47;10.00;99.90
12845;DHT22;68700;48.534;9.196;2023-11-21T13:26:11;9.80;99.90
12845;DHT22;68700;48.534;9.196;2023-11-21T13:29:35;10.00;99.90
12845;DHT22;68700;48.534;9.196;2023-11-21T13:32:57;9.90;99.90
12845;DHT22;68700;48.534;9.196;2023-11-21T13:36:22;10.10;99.90
12845;DHT22;68700;48.534;9.196;2023-11-21T13:39:44;9.80;99.90
12845;DHT22;68700;48.534;9.196;2023-11-21T13:43:12;9.80;99.90
12845;DHT22;68700;48.534;9.196;2023-11-21T13:46:34;9.90;99.90
12845;DHT22;68700;48.534;9.196;2023-11-21T13:49:58;10.00;99.90
12845;DHT22;68700;48.534;9.196;2023-11-21T13:53:21;9.80;99.90
12845;DHT22;68700;48.534;9.196;2023-11-21T13:56:43;10.00;99.90
12845;DHT22;68700;48.534;9.196;2023-11-21T14:00:10;10.00;99.90
12845;DHT22;68700;48.534;9.196;2023-11-21T14:03:52;10.00;99.90
12845;DHT22;68700;48.534;9.196;2023-11-21T14:07:18;10.10;99.90
12845;DHT22;68700;48.534;9.196;2023-11-21T14:10:51;10.20;99.90
12845;DHT22;68700;48.534;9.196;2023-11-21T14:14:16;10.30;50.10
12845;DHT22;68700;48.534;9.196;2023-11-21T14:17:40;10.40;39.70
12845;DHT22;68700;48.534;9.196;2023-11-21T14:21:02;10.50;1.00
12845;DHT22;68700;48.534;9.196;2023-11-21T14:24:26;10.50;1.80
12845;DHT22;68700;48.534;9.196;2023-11-21T14:27:49;10.40;25.60
12845;DHT22;68700;48.534;9.196;2023-11-21T14:31:11;10.40;22.30
12845;DHT22;68700;48.534;9.196;2023-11-21T14:34:38;10.20;54.30
12845;DHT22;68700;48.534;9.196;2023-11-21T14:38:01;10.00;86.70
12845;DHT22;68700;48.534;9.196;2023-11-21T14:41:25;9.90;99.90
12845;DHT22;68700;48.534;9.196;2023-11-21T14:44:48;9.70;99.90
12845;DHT22;68700;48.534;9.196;2023-11-21T14:48:10;9.60;99.90
12845;DHT22;68700;48.534;9.196;2023-11-21T14:51:37;9.50;99.90
12845;DHT22;68700;48.534;9.196;2023-11-21T14:55:20;9.50;99.90
12845;DHT22;68700;48.534;9.196;2023-11-21T14:58:44;9.40;99.90
12845;DHT22;68700;48.534;9.196;2023-11-21T15:02:06;9.30;99.90
12845;DHT22;68700;48.534;9.196;2023-11-21T15:05:35;9.30;99.90
12845;DHT22;68700;48.534;9.196;2023-11-21T15:09:00;9.20;99.90
12845;DHT22;68700;48.534;9.196;2023-11-21T15:12:40;9.20;99.90
12845;DHT22;68700;48.534;9.196;2023-11-21T15:16:04;9.10;99.90
12845;DHT22;68700;48.534;9.196;2023-11-21T15:19:28;9.00;99.90
12845;DHT22;68700;48.534;9.196;2023-11-21T15:22:51;8.90;99.90
12845;DHT22;68700;48.534;9.196;2023-11-21T15:26:15;8.90;99.90
12845;DHT22;68700;48.534;9.196;2023-11-21T15:29:38;8.80;99.90
12845;DHT22;68700;48.534;9.196;2023-11-21T15:33:00;8.90;99.90
12845;DHT22;68700;48.534;9.196;2023-11-21T15:36:24;8.80;99.90
12845;DHT22;68700;48.534;9.196;2023-11-21T15:39:47;8.80;99.90
12845;DHT22;68700;48.534;9.196;2023-11-21T15:43:10;8.80;99.90
12845;DHT22;68700;48.534;9.196;2023-11-21T15:46:33;8.80;99.90
12845;DHT22;68700;48.534;9.196;2023-11-21T15:49:55;8.70;99.90
12845;DHT22;68700;48.534;9.196;2023-11-21T15:53:17;8.70;99.90
12845;DHT22;68700;48.534;9.196;2023-11-21T15:56:39;8.70;99.90
12845;DHT22;68700;48.534;9.196;2023-11-21T16:00:03;8.70;99.90
12845;DHT22;68700;48.534;9.196;2023-11-21T16:03:32;8.60;99.90
12845;DHT22;68700;48.534;9.196;2023-11-21T16:06:54;8.70;99.90
12845;DHT22;68700;48.534;9.196;2023-11-21T16:10:16;8.60;99.90
12845;DHT22;68700;48.534;9.196;2023-11-21T16:13:39;8.60;99.90
12845;DHT22;68700;48.534;9.196;2023-11-21T16:17:04;8.60;99.90
12845;DHT22;68700;48.534;9.196;2023-11-21T16:20:27;8.60;99.90
12845;DHT22;68700;48.534;9.196;2023-11-21T16:23:49;8.60;99.90
12845;DHT22;68700;48.534;9.196;2023-11-21T16:27:11;8.60;99.90
12845;DHT22;68700;48.534;9.196;2023-11-21T16:30:33;8.50;99.90
12845;DHT22;68700;48.534;9.196;2023-11-21T16:33:57;8.50;99.90
12845;DHT22;68700;48.534;9.196;2023-11-21T16:37:18;8.50;99.90
12845;DHT22;68700;48.534;9.196;2023-11-21T16:40:40;8.50;99.90
12845;DHT22;68700;48.534;9.196;2023-11-21T16:44:02;8.60;99.90
12845;DHT22;68700;48.534;9.196;2023-11-21T16:47:24;8.50;99.90
12845;DHT22;68700;48.534;9.196;2023-11-21T16:50:48;8.50;99.90
12845;DHT22;68700;48.534;9.196;2023-11-21T16:54:10;8.40;99.90
12845;DHT22;68700;48.534;9.196;2023-11-21T16:57:32;8.40;99.90
12845;DHT22;68700;48.534;9.196;2023-11-21T17:00:54;8.40;99.90
12845;DHT22;68700;48.534;9.196;2023-11-21T17:04:16;8.40;99.90
12845;DHT22;68700;48.534;9.196;2023-11-21T17:07:40;8.40;99.90
12845;DHT22;68700;48.534;9.196;2023-11-21T17:11:02;8.40;99.90
12845;DHT22;68700;48.534;9.196;2023-11-21T17:14:24;8.30;99.90
12845;DHT22;68700;48.534;9.196;2023-11-21T17:17:46;8.30;99.90
12845;DHT22;68700;48.534;9.196;2023-11-21T17:21:08;8.30;99.90
12845;DHT22;68700;48.534;9.196;2023-11-21T17:24:32;8.30;99.90
12845;DHT22;68700;48.534;9.196;2023-11-21T17:27:56;8.20;99.90
12845;DHT22;68700;48.534;9.196;2023-11-21T17:31:18;8.20;99.90
12845;DHT22;68700;48.534;9.196;2023-11-21T17:34:41;8.20;99.90
12845;DHT22;68700;48.534;9.196;2023-11-21T17:38:03;8.10;99.90
12845;DHT22;68700;48.534;9.196;2023-11-21T17:41:27;8.20;99.90
12845;DHT22;68700;48.534;9.196;2023-11-21T17:44:49;8.20;99.90
12845;DHT22;68700;48.534;9.196;2023-11-21T17:48:10;8.10;99.90
12845;DHT22;68700;48.534;9.196;2023-11-21T17:51:37;8.20;1.40
12845;DHT22;68700;48.534;9.196;2023-11-21T17:54:59;8.20;99.90
12845;DHT22;68700;48.534;9.196;2023-11-21T17:58:22;8.20;99.90
12845;DHT22;68700;48.534;9.196;2023-11-21T18:01:46;8.20;99.90
12845;DHT22;68700;48.534;9.196;2023-11-21T18:05:08;8.10;99.90
12845;DHT22;68700;48.534;9.196;2023-11-21T18:08:33;8.10;99.90
12845;DHT22;68700;48.534;9.196;2023-11-21T18:11:55;8.10;99.90
12845;DHT22;68700;48.534;9.196;2023-11-21T18:15:18;8.00;99.90
12845;DHT22;68700;48.534;9.196;2023-11-21T18:18:40;8.00;99.90
12845;DHT22;68700;48.534;9.196;2023-11-21T18:22:02;7.90;99.90
12845;DHT22;68700;48.534;9.196;2023-11-21T18:25:24;7.80;99.90
12845;DHT22;68700;48.534;9.196;2023-11-21T18:28:49;7.80;99.90
12845;DHT22;68700;48.534;9.196;2023-11-21T18:32:12;7.80;99.90
12845;DHT22;68700;48.534;9.196;2023-11-21T18:35:34;7.80;99.90
12845;DHT22;68700;48.534;9.196;2023-11-21T18:38:56;7.70;99.90
12845;DHT22;68700;48.534;9.196;2023-11-21T18:42:18;7.80;99.90
12845;DHT22;68700;48.534;9.196;2023-11-21T18:45:41;7.80;99.90
12845;DHT22;68700;48.534;9.196;2023-11-21T18:49:04;7.70;99.90
12845;DHT22;68700;48.534;9.196;2023-11-21T18:52:26;7.70;99.90
12845;DHT22;68700;48.534;9.196;2023-11-21T18:55:48;7.70;99.90
12845;DHT22;68700;48.534;9.196;2023-11-21T18:59:10;7.60;99.90
12845;DHT22;68700;48.534;9.196;2023-11-21T19:02:34;7.60;99.90
12845;DHT22;68700;48.534;9.196;2023-11-21T19:05:57;7.60;99.90
12845;DHT22;68700;48.534;9.196;2023-11-21T19:09:19;7.60;99.90
12845;DHT22;68700;48.534;9.196;2023-11-21T19:12:42;7.60;99.90
12845;DHT22;68700;48.534;9.196;2023-11-21T19:16:04;7.60;99.90
12845;DHT22;68700;48.534;9.196;2023-11-21T19:19:26;7.70;99.90
12845;DHT22;68700;48.534;9.196;2023-11-21T19:22:50;7.70;99.90
12845;DHT22;68700;48.534;9.196;2023-11-21T19:26:12;7.70;99.90
12845;DHT22;68700;48.534;9.196;2023-11-21T19:29:35;7.70;99.90
12845;DHT22;68700;48.534;9.196;2023-11-21T19:32:57;7.70;99.90
12845;DHT22;68700;48.534;9.196;2023-11-21T19:36:19;7.60;99.90
12845;DHT22;68700;48.534;9.196;2023-11-21T19:39:43;7.60;99.90
12845;DHT22;68700;48.534;9.196;2023-11-21T19:43:05;7.70;99.90
12845;DHT22;68700;48.534;9.196;2023-11-21T19:46:28;7.70;99.90
12845;DHT22;68700;48.534;9.196;2023-11-21T19:49:50;7.70;99.90
12845;DHT22;68700;48.534;9.196;2023-11-21T19:53:14;7.70;99.90
12845;DHT22;68700;48.534;9.196;2023-11-21T19:56:38;7.70;99.90
12845;DHT22;68700;48.534;9.196;2023-11-21T20:00:01;7.70;99.90
12845;DHT22;68700;48.534;9.196;2023-11-21T20:03:28;7.80;99.90
12845;DHT22;68700;48.534;9.196;2023-11-21T20:06:51;7.80;99.90
12845;DHT22;68700;48.534;9.196;2023-11-21T20:10:14;7.80;99.90
12845;DHT22;68700;48.534;9.196;2023-11-21T20:13:40;7.80;99.90
12845;DHT22;68700;48.534;9.196;2023-11-21T20:17:02;7.80;99.90
12845;DHT22;68700;48.534;9.196;2023-11-21T20:20:25;7.70;1.00
12845;DHT22;68700;48.534;9.196;2023-11-21T20:23:47;7.70;99.90
12845;DHT22;68700;48.534;9.196;2023-11-21T20:27:09;7.70;99.90
12845;DHT22;68700;48.534;9.196;2023-11-21T20:30:33;7.70;1.00
12845;DHT22;68700;48.534;9.196;2023-11-21T20:33:54;7.80;1.00
12845;DHT22;68700;48.534;9.196;2023-11-21T20:37:16;7.80;1.00
12845;DHT22;68700;48.534;9.196;2023-11-21T20:40:38;7.70;1.00
12845;DHT22;68700;48.534;9.196;2023-11-21T20:44:00;7.70;1.00
12845;DHT22;68700;48.534;9.196;2023-11-21T20:47:23;7.70;1.00
12845;DHT22;68700;48.534;9.196;2023-11-21T20:50:46;7.70;1.00
12845;DHT22;68700;48.534;9.196;2023-11-21T20:54:11;7.70;99.90
12845;DHT22;68700;48.534;9.196;2023-11-21T20:57:33;7.70;1.00
12845;DHT22;68700;48.534;9.196;2023-11-21T21:00:54;7.70;1.00
12845;DHT22;68700;48.534;9.196;2023-11-21T21:04:18;7.70;1.00
12845;DHT22;68700;48.534;9.196;2023-11-21T21:07:41;7.70;1.00
12845;DHT22;68700;48.534;9.196;2023-11-21T21:11:03;7.60;1.00
12845;DHT22;68700;48.534;9.196;2023-11-21T21:14:27;7.70;1.00
12845;DHT22;68700;48.534;9.196;2023-11-21T21:17:50;7.70;1.00
12845;DHT22;68700;48.534;9.196;2023-11-21T21:21:13;7.70;1.00
12845;DHT22;68700;48.534;9.196;2023-11-21T21:24:35;7.60;99.90
12845;DHT22;68700;48.534;9.196;2023-11-21T21:27:56;7.60;99.90
12845;DHT22;68700;48.534;9.196;2023-11-21T21:31:18;7.70;1.40
12845;DHT22;68700;48.534;9.196;2023-11-21T21:34:40;7.70;1.00
12845;DHT22;68700;48.534;9.196;2023-11-21T21:38:03;7.70;99.90
12845;DHT22;68700;48.534;9.196;2023-11-21T21:41:26;7.70;99.90
12845;DHT22;68700;48.534;9.196;2023-11-21T21:44:47;7.70;99.90
12845;DHT22;68700;48.534;9.196;2023-11-21T21:48:10;7.70;99.90